MV Alemania — V2OG7 — position and weather

sailwx.info

Track history (hours):
 
Tides and Currents Weather Stations Pressure Air Temp Water Temp Dewpoint Dewpoint Depression Visibility Wind Speed Wind Dir Waves Ship Positions

MV Alemania

Last reported at 2015-May-23 15:33 UTC. Time now 2015-May-23 16:31 UTC.
Position N 37°51' E 023°39'.

Length 133 m; draft 7.2 m.

Type: Cargo ship. MMSI: 304010613.

Date/timePositionNaut miles runAvg speedWind from/ knotsBaromVisibWave heightAir tempDewpointWater temp
2015-May-23 15:33N 37°51' E 023°39'1110.7
2015-May-23 14:33N 37°41' E 023°45'1010.2
2015-May-23 13:33N 37°31' E 023°47'1111.1
2015-May-23 12:33N 37°20' E 023°44'1111.0
2015-May-23 11:33N 37°09' E 023°41'1310.7
2015-May-23 10:23N 36°57' E 023°38'1210.5
2015-May-23 09:13N 36°46' E 023°31'1810.7
2015-May-23 07:30N 36°30' E 023°20'41311.8
2015-May-21 20:24N 36°20' E 014°47'1011.4
2015-May-21 19:33N 36°20' E 014°35'1211.6
2015-May-21 18:33N 36°20' E 014°20'1211.8
2015-May-21 17:33N 36°20' E 014°06'1212.0
2015-May-21 16:33N 36°23' E 013°51'1212.3
2015-May-21 15:33N 36°28' E 013°37'1212.0
2015-May-21 14:33N 36°32' E 013°23'1211.5
2015-May-21 13:33N 36°37' E 013°10'1211.6
2015-May-21 12:33N 36°41' E 012°57'151 4.6
2015-May-20 03:31N 37°16' E 009°52'14 1.6
2015-May-19 18:33N 37°17' E 010°10'  
2015-May-13 19:10N 36°49' E 010°25'0 0.0
2015-May-13 18:31N 36°49' E 010°25'0 0.0
2015-May-13 17:28N 36°49' E 010°25'0 0.0
2015-May-13 16:33N 36°49' E 010°25'  
Track history (hours):
 
Tides and Currents Weather Stations Pressure Air Temp Water Temp Dewpoint Dewpoint Depression Visibility Wind Speed Wind Dir Waves Ship Positions

MV Alemania

Last reported at 2015-May-23 15:33 UTC. Time now 2015-May-23 16:31 UTC.
Position N 37°51' E 023°39'.

Length 133 m; draft 7.2 m.

Type: Cargo ship. MMSI: 304010613.

Date/timePositionNaut miles runAvg speedWind from/ knotsBaromVisibWave heightAir tempDewpointWater temp
2015-May-23 15:33N 37°51' E 023°39'1110.7
2015-May-23 14:33N 37°41' E 023°45'1010.2
2015-May-23 13:33N 37°31' E 023°47'1111.1
2015-May-23 12:33N 37°20' E 023°44'1111.0
2015-May-23 11:33N 37°09' E 023°41'1310.7
2015-May-23 10:23N 36°57' E 023°38'1210.5
2015-May-23 09:13N 36°46' E 023°31'1810.7
2015-May-23 07:30N 36°30' E 023°20'41311.8
2015-May-21 20:24N 36°20' E 014°47'1011.4
2015-May-21 19:33N 36°20' E 014°35'1211.6
2015-May-21 18:33N 36°20' E 014°20'1211.8
2015-May-21 17:33N 36°20' E 014°06'1212.0
2015-May-21 16:33N 36°23' E 013°51'1212.3
2015-May-21 15:33N 36°28' E 013°37'1212.0
2015-May-21 14:33N 36°32' E 013°23'1211.5
2015-May-21 13:33N 36°37' E 013°10'1211.6
2015-May-21 12:33N 36°41' E 012°57'151 4.6
2015-May-20 03:31N 37°16' E 009°52'14 1.6
2015-May-19 18:33N 37°17' E 010°10'  
2015-May-13 19:10N 36°49' E 010°25'0 0.0
2015-May-13 18:31N 36°49' E 010°25'0 0.0
2015-May-13 17:28N 36°49' E 010°25'0 0.0
2015-May-13 16:33N 36°49' E 010°25'  

Dump ship's entire track history